Airfield :
LOGIN :

Register | Disclaimer

   EN    FR    IT 

 










Legend :    VFR   Marginal VFR   IFR   Intensive IFR   Very Intensive IFR
Visi :
Ceiling :
>= 8 km
>= 3000ft
5 to 8 km
1000 to 3000 ft
1500m to 5 km
500 to 1000 ft
800 to 1500m
200 to 500 ft
< 800m
< 200 ft
Symbols :   Thunderstorms  Fog  Heavy snow  Heavy precipitations  Wind > 20 kt
SIGMETs :     Misc.  Thunderstorms  Icing  Turbulence  Mountain Waves  Volcanic Ashes






- Airport Elevation : 124 ft
- IATA code : AVN


LFMV - Avignon Caumont

CURRENT METAR :
  • 220600Z AUTO 13011KT 9999 SCT054 BKN120 OVC140 19/12 Q1018 NOSIG

EXPIRED METARs :
  • 220530Z AUTO 13012KT 9999 SCT048 BKN140 OVC160 19/12 Q1018 NOSIG
  • 220500Z AUTO 14012KT 9999 FEW046 OVC170 19/12 Q1018 NOSIG
  • 220430Z AUTO 14014KT 9999 BKN044 OVC180 19/11 Q1017 NOSIG
  • 220400Z AUTO 13014KT 9999 BKN044 OVC200 19/11 Q1017 NOSIG
  • 220330Z AUTO 12010KT 9999 BKN045 BKN052 OVC180 19/12 Q1017 NOSIG

TAF TAF LFMV
Valid from the 22 at 03:00 until the 23 at 03:00 UTC


220200Z 2203/2303 14012KT 9999 BKN040
PROB30
TEMPO 2215/2223 -RA BKN014 BKN030
TEMPO 2223/2303 16015G25KT 3000 RA BKN014 OVC030
ATIS : +33 4 90 84 32 84



MET'MAP, your aeronautical weather chart ! - Copyright ORBIFLY December 2007 - Disclaimer

ORBIFLY MET'MAP TEAM :

Programming & Development : Alexandra Zaïnal
Concept & original design : Baudouin d'Aumeries
Assistance for programming : Marc-Olivier Méhu
Technical & hardware support : Manuel Goepfert

Contact : metmap@orbifly.com




SOURCES & CREDITS :

   NOAA